createdAt,value
2023-06-29T00:01:16.903Z,1.57
2023-06-29T00:04:08.105Z,1.52
2023-06-29T00:06:58.959Z,1.72
2023-06-29T00:09:50.152Z,1.90
2023-06-29T00:12:42.517Z,2.15
2023-06-29T00:15:33.518Z,1.87
2023-06-29T00:18:25.021Z,1.92
2023-06-29T00:23:56.113Z,1.75
2023-06-29T00:26:47.260Z,1.90
2023-06-29T00:29:38.250Z,1.87
2023-06-29T00:32:30.552Z,2.00
2023-06-29T00:38:00.164Z,1.85
2023-06-29T00:43:29.967Z,1.80
2023-06-29T00:46:22.255Z,1.60
2023-06-29T00:49:15.132Z,2.00
2023-06-29T00:52:07.713Z,2.30
2023-06-29T00:55:00.649Z,1.80
2023-06-29T00:57:51.926Z,1.70
2023-06-29T01:00:43.200Z,2.00
2023-06-29T01:03:34.949Z,1.75
2023-06-29T01:06:31.247Z,1.90
2023-06-29T01:09:22.967Z,2.02
2023-06-29T01:12:15.583Z,2.20
2023-06-29T01:17:47.717Z,1.85
2023-06-29T01:20:40.095Z,1.80
2023-06-29T01:23:35.179Z,1.85
2023-06-29T01:26:26.284Z,1.75
2023-06-29T01:29:26.003Z,1.92
2023-06-29T01:40:30.171Z,2.30
2023-06-29T01:43:25.537Z,2.10
2023-06-29T01:46:17.558Z,1.90
2023-06-29T01:49:09.320Z,2.02
2023-06-29T01:52:00.309Z,2.17
2023-06-29T01:57:30.731Z,2.30
2023-06-29T02:03:01.274Z,2.20
2023-06-29T02:05:51.939Z,2.20
2023-06-29T02:08:43.801Z,2.27
2023-06-29T02:11:34.846Z,2.12
2023-06-29T02:14:25.849Z,2.60
2023-06-29T02:17:16.793Z,2.62
2023-06-29T02:20:11.849Z,2.08
2023-06-29T02:23:03.205Z,2.52
2023-06-29T02:25:54.708Z,2.30
2023-06-29T02:28:45.746Z,2.33
2023-06-29T02:31:38.641Z,2.20
2023-06-29T02:34:31.674Z,2.20
2023-06-29T02:37:22.973Z,2.15
2023-06-29T02:40:15.516Z,2.80
2023-06-29T02:43:07.685Z,2.80
2023-06-29T02:48:37.014Z,2.40
2023-06-29T02:51:28.137Z,2.85
2023-06-29T02:54:20.866Z,2.42
2023-06-29T02:57:12.277Z,2.33
2023-06-29T03:00:04.836Z,2.65
2023-06-29T03:02:56.018Z,2.33
2023-06-29T03:05:47.532Z,2.72
2023-06-29T03:11:19.101Z,2.58
2023-06-29T03:14:10.211Z,2.67
2023-06-29T03:19:42.839Z,2.50
2023-06-29T03:22:34.283Z,2.50
2023-06-29T03:25:25.561Z,2.85
2023-06-29T03:28:16.859Z,2.62
2023-06-29T03:33:47.715Z,2.50
2023-06-29T03:36:38.951Z,2.60
2023-06-29T03:39:30.611Z,2.72
2023-06-29T03:42:22.192Z,2.27
2023-06-29T03:45:14.311Z,2.80
2023-06-29T03:50:44.092Z,2.87
2023-06-29T03:53:35.456Z,2.20
2023-06-29T03:56:26.951Z,2.70
2023-06-29T03:59:18.364Z,2.67
2023-06-29T04:02:12.143Z,2.52
2023-06-29T04:07:47.953Z,2.47
2023-06-29T04:10:39.252Z,2.35
2023-06-29T04:16:09.961Z,2.22
2023-06-29T04:19:00.976Z,2.12
2023-06-29T04:21:52.203Z,2.50
2023-06-29T04:24:43.400Z,2.15
2023-06-29T04:27:35.813Z,2.35
2023-06-29T04:30:27.380Z,2.10
2023-06-29T04:33:18.954Z,2.30
2023-06-29T04:36:11.852Z,2.60
2023-06-29T04:39:05.763Z,2.10
2023-06-29T04:41:59.098Z,2.42
2023-06-29T04:44:50.395Z,2.52
2023-06-29T04:47:42.300Z,3.08
2023-06-29T04:53:13.319Z,3.00
2023-06-29T04:56:05.301Z,3.70
2023-06-29T04:58:56.888Z,3.25
2023-06-29T05:01:48.446Z,2.87
2023-06-29T05:04:40.115Z,4.28
2023-06-29T05:07:31.740Z,3.30
2023-06-29T05:10:23.065Z,3.20
2023-06-29T05:13:31.855Z,2.70
2023-06-29T05:16:25.021Z,2.67
2023-06-29T05:19:19.218Z,2.50
2023-06-29T05:22:10.740Z,2.40
2023-06-29T05:25:02.065Z,3.02
2023-06-29T05:27:53.302Z,3.05
2023-06-29T05:33:28.281Z,2.92
2023-06-29T05:36:19.451Z,2.98
2023-06-29T05:41:51.339Z,2.70
2023-06-29T05:44:42.801Z,3.10
2023-06-29T05:47:34.357Z,3.02
2023-06-29T05:53:05.541Z,3.25
2023-06-29T05:58:35.654Z,3.30
2023-06-29T06:04:08.356Z,3.17
2023-06-29T06:09:46.524Z,2.85
2023-06-29T06:12:37.983Z,2.90
2023-06-29T06:18:12.350Z,3.00
2023-06-29T06:21:04.357Z,3.72
2023-06-29T06:23:56.719Z,2.90
2023-06-29T06:26:48.270Z,3.58
2023-06-29T06:29:39.994Z,2.98
2023-06-29T06:32:31.235Z,3.20
2023-06-29T06:35:23.062Z,3.08
2023-06-29T06:38:14.312Z,3.00
2023-06-29T06:41:06.243Z,3.67
2023-06-29T06:43:58.555Z,3.90
2023-06-29T06:46:50.108Z,4.37
2023-06-29T06:49:42.226Z,4.28
2023-06-29T06:52:33.882Z,4.35
2023-06-29T06:55:25.294Z,3.67
2023-06-29T06:58:16.774Z,3.27
2023-06-29T07:01:08.701Z,3.17
2023-06-29T07:04:01.180Z,3.58
2023-06-29T07:06:52.788Z,2.98
2023-06-29T07:09:44.669Z,3.05
2023-06-29T07:12:38.107Z,3.12
2023-06-29T07:18:12.576Z,2.83
2023-06-29T07:26:51.536Z,3.33
2023-06-29T07:32:34.311Z,3.33
2023-06-29T07:35:25.985Z,3.17
2023-06-29T07:38:17.643Z,3.40
2023-06-29T07:41:10.279Z,2.98
2023-06-29T07:46:42.780Z,3.45
2023-06-29T07:49:36.120Z,3.70
2023-06-29T07:52:28.221Z,3.52
2023-06-29T08:03:44.045Z,3.00
2023-06-29T08:09:23.718Z,3.30
2023-06-29T08:14:59.815Z,3.00
2023-06-29T08:17:51.364Z,3.30
2023-06-29T08:21:19.378Z,3.12
2023-06-29T08:24:07.671Z,3.33
2023-06-29T08:32:56.658Z,2.98
2023-06-29T08:38:27.855Z,3.30
2023-06-29T08:41:19.574Z,3.40
2023-06-29T08:44:15.401Z,3.52
2023-06-29T08:47:31.897Z,3.20
2023-06-29T08:53:07.302Z,3.42
2023-06-29T08:58:37.952Z,3.35
2023-06-29T09:01:31.518Z,3.27
2023-06-29T09:07:05.395Z,3.00
2023-06-29T09:12:38.046Z,2.98
2023-06-29T09:15:31.460Z,3.30
2023-06-29T09:21:14.824Z,2.60
2023-06-29T09:24:10.562Z,3.02
2023-06-29T09:29:41.503Z,2.62
2023-06-29T09:38:12.337Z,2.60
2023-06-29T09:43:53.815Z,2.37
2023-06-29T09:49:07.120Z,2.80
2023-06-29T09:49:49.970Z,2.67
2023-06-29T09:52:48.718Z,2.58
2023-06-29T09:55:42.590Z,2.30
2023-06-29T09:58:37.019Z,2.15
2023-06-29T10:01:30.226Z,2.30
2023-06-29T10:04:21.440Z,2.50
2023-06-29T10:09:53.505Z,2.00
2023-06-29T10:12:45.154Z,2.67
2023-06-29T10:15:39.027Z,2.92
2023-06-29T10:22:00.725Z,2.60
2023-06-29T10:27:36.468Z,2.62
2023-06-29T10:33:08.074Z,2.87
2023-06-29T10:51:54.380Z,2.65
2023-06-29T10:55:17.470Z,2.95
2023-06-29T10:58:30.323Z,2.80
2023-06-29T11:01:40.092Z,2.90
2023-06-29T11:04:50.514Z,2.80
2023-06-29T11:08:02.133Z,3.20
2023-06-29T11:11:18.653Z,3.10
2023-06-29T11:14:33.352Z,3.20
2023-06-29T11:17:43.340Z,3.15
2023-06-29T11:20:53.808Z,3.20
2023-06-29T11:24:03.984Z,3.77
2023-06-29T11:27:13.710Z,3.50
2023-06-29T11:30:24.112Z,3.52
2023-06-29T11:36:56.056Z,3.55
2023-06-29T11:39:56.617Z,3.42
2023-06-29T11:43:06.524Z,3.70
2023-06-29T11:46:18.719Z,3.55
2023-06-29T11:49:28.570Z,3.80
2023-06-29T11:52:40.565Z,4.00
2023-06-29T11:55:57.804Z,3.90
2023-06-29T11:59:08.692Z,3.80
2023-06-29T12:02:18.672Z,3.77
2023-06-29T12:05:31.418Z,4.28
2023-06-29T12:08:43.304Z,4.22
2023-06-29T12:12:00.192Z,3.72
2023-06-29T12:15:17.648Z,3.70
2023-06-29T12:18:36.653Z,4.53
2023-06-29T12:21:45.585Z,4.50
2023-06-29T12:24:55.544Z,3.15
2023-06-29T12:28:05.480Z,3.62
2023-06-29T12:31:15.482Z,4.28
2023-06-29T12:34:25.389Z,4.20
2023-06-29T12:37:35.039Z,3.98
2023-06-29T12:40:45.088Z,4.20
2023-06-29T12:43:54.656Z,4.60
2023-06-29T12:47:05.008Z,4.90
2023-06-29T12:50:15.161Z,4.40
2023-06-29T12:53:24.803Z,4.47
2023-06-29T12:56:34.167Z,4.55
2023-06-29T12:59:44.193Z,4.15
2023-06-29T13:02:58.430Z,3.70
2023-06-29T13:06:09.798Z,5.28
2023-06-29T13:09:19.282Z,4.60
2023-06-29T13:12:29.615Z,4.33
2023-06-29T13:15:39.527Z,4.70
2023-06-29T13:18:49.339Z,4.65
2023-06-29T13:21:59.442Z,4.85
2023-06-29T13:24:51.425Z,4.20
2023-06-29T13:28:01.149Z,4.90
2023-06-29T13:31:10.665Z,4.75
2023-06-29T13:34:20.680Z,4.53
2023-06-29T13:37:30.714Z,4.83
2023-06-29T13:40:40.588Z,4.33
2023-06-29T13:43:31.732Z,4.97
2023-06-29T13:46:23.296Z,4.25
2023-06-29T13:49:16.546Z,4.97
2023-06-29T13:52:09.026Z,4.75
2023-06-29T13:55:00.316Z,4.17
2023-06-29T13:57:51.901Z,4.90
2023-06-29T14:00:43.977Z,5.28
2023-06-29T14:03:35.646Z,5.17
2023-06-29T14:06:27.491Z,4.65
2023-06-29T14:09:20.493Z,5.17
2023-06-29T14:12:12.348Z,5.08
2023-06-29T14:15:04.144Z,5.05
2023-06-29T14:17:55.455Z,4.62
2023-06-29T14:20:47.134Z,4.92
2023-06-29T14:23:38.438Z,5.35
2023-06-29T14:26:29.976Z,5.80
2023-06-29T14:29:21.559Z,4.83
2023-06-29T14:32:14.791Z,5.28
2023-06-29T14:35:07.357Z,5.67
2023-06-29T14:38:12.743Z,5.58
2023-06-29T14:40:51.194Z,5.00
2023-06-29T14:43:43.740Z,5.60
2023-06-29T14:46:35.468Z,5.87
2023-06-29T14:49:26.879Z,5.87
2023-06-29T14:52:18.047Z,5.65
2023-06-29T14:55:10.862Z,5.67
2023-06-29T14:58:02.351Z,5.65
2023-06-29T15:00:53.651Z,6.05
2023-06-29T15:03:45.397Z,5.42
2023-06-29T15:06:36.896Z,5.70
2023-06-29T15:09:31.565Z,5.60
2023-06-29T15:12:25.270Z,5.70
2023-06-29T15:15:21.099Z,6.00
2023-06-29T15:18:15.895Z,6.17
2023-06-29T15:21:08.868Z,5.90
2023-06-29T15:24:02.049Z,6.20
2023-06-29T15:26:54.999Z,6.20
2023-06-29T15:29:55.379Z,6.30
2023-06-29T15:32:52.889Z,6.70
2023-06-29T15:35:50.386Z,6.05
2023-06-29T15:38:44.897Z,6.15
2023-06-29T15:41:38.968Z,5.87
2023-06-29T15:44:37.994Z,5.33
2023-06-29T15:47:30.732Z,6.15
2023-06-29T15:50:30.586Z,5.58
2023-06-29T15:53:22.459Z,6.17
2023-06-29T15:56:17.142Z,6.65
2023-06-29T15:59:10.727Z,6.42
2023-06-29T16:02:04.678Z,6.55
2023-06-29T16:04:59.664Z,6.75
2023-06-29T16:07:55.111Z,6.80
2023-06-29T16:10:48.597Z,6.90
2023-06-29T16:13:45.045Z,6.62
2023-06-29T16:16:41.342Z,6.87
2023-06-29T16:19:34.992Z,6.53
2023-06-29T16:22:29.258Z,6.90
2023-06-29T16:25:27.586Z,7.62
2023-06-29T16:28:31.129Z,7.00
2023-06-29T16:31:28.390Z,6.55
2023-06-29T16:34:23.322Z,6.87
2023-06-29T16:37:16.064Z,6.67
2023-06-29T16:40:11.138Z,6.85
2023-06-29T16:43:03.707Z,6.60
2023-06-29T16:45:58.815Z,7.30
2023-06-29T16:51:37.591Z,7.35
2023-06-29T16:54:28.490Z,7.12
2023-06-29T16:57:19.737Z,7.15
2023-06-29T17:00:13.012Z,6.92
2023-06-29T17:03:04.393Z,7.15
2023-06-29T17:05:55.696Z,7.08
2023-06-29T17:11:28.383Z,8.18
2023-06-29T17:14:21.097Z,8.45
2023-06-29T17:17:17.236Z,8.45
2023-06-29T17:20:11.326Z,8.93
2023-06-29T17:26:12.241Z,9.23
2023-06-29T17:29:11.186Z,9.73
2023-06-29T17:32:05.422Z,9.30
2023-06-29T17:35:19.366Z,10.68
2023-06-29T17:43:38.356Z,12.03
2023-06-29T17:49:10.374Z,12.10
2023-06-29T17:55:54.755Z,13.13
2023-06-29T17:58:46.338Z,12.43
2023-06-29T18:04:16.775Z,13.25
2023-06-29T18:07:13.436Z,11.43
2023-06-29T18:10:10.269Z,13.72
2023-06-29T18:16:04.464Z,14.07
2023-06-29T18:19:01.114Z,13.83
2023-06-29T18:21:52.763Z,14.38
2023-06-29T18:24:43.974Z,14.15
2023-06-29T18:30:16.325Z,13.93
2023-06-29T18:33:07.630Z,15.13
2023-06-29T18:36:01.229Z,14.05
2023-06-29T18:41:37.648Z,14.93
2023-06-29T18:47:52.029Z,15.32
2023-06-29T18:50:43.166Z,14.85
2023-06-29T18:56:37.296Z,14.40
2023-06-29T18:59:28.844Z,13.68
2023-06-29T19:02:20.529Z,13.75
2023-06-29T19:05:12.233Z,12.53
2023-06-29T19:08:03.885Z,13.15
2023-06-29T19:10:56.459Z,12.60
2023-06-29T19:13:47.921Z,13.53
2023-06-29T19:16:40.663Z,13.00
2023-06-29T19:22:17.784Z,13.05
2023-06-29T19:25:14.175Z,12.13
2023-06-29T19:28:06.004Z,10.08
2023-06-29T19:30:57.214Z,10.05
2023-06-29T19:36:28.461Z,11.55
2023-06-29T19:39:20.385Z,11.43
2023-06-29T19:42:12.322Z,11.00
2023-06-29T19:45:03.879Z,8.45
2023-06-29T19:47:55.244Z,7.53
2023-06-29T19:50:47.151Z,8.93
2023-06-29T19:53:40.194Z,7.90
2023-06-29T19:56:31.652Z,8.05
2023-06-29T20:02:03.595Z,8.70
2023-06-29T20:07:42.383Z,11.50
2023-06-29T20:10:33.730Z,11.30
2023-06-29T20:21:26.143Z,10.60
2023-06-29T20:24:17.527Z,11.90
2023-06-29T20:27:26.405Z,12.75
2023-06-29T20:30:23.165Z,12.18
2023-06-29T20:33:14.476Z,13.05
2023-06-29T20:36:10.833Z,13.70
2023-06-29T20:39:08.524Z,12.98
2023-06-29T20:42:00.338Z,12.07
2023-06-29T20:47:41.605Z,15.48
2023-06-29T20:50:40.071Z,12.90
2023-06-29T20:56:47.960Z,13.20
2023-06-29T20:59:50.717Z,12.58
2023-06-29T21:02:53.340Z,13.62
2023-06-29T21:05:44.650Z,13.70
2023-06-29T21:11:14.798Z,15.90
2023-06-29T21:14:11.477Z,20.17
2023-06-29T21:17:03.413Z,21.68
2023-06-29T21:19:57.901Z,18.82
2023-06-29T21:22:52.232Z,29.48
2023-06-29T21:31:57.200Z,14.23
2023-06-29T21:34:55.302Z,13.68
2023-06-29T21:37:56.844Z,13.72
2023-06-29T21:40:49.861Z,11.45
2023-06-29T21:43:42.762Z,11.20
2023-06-29T21:46:40.091Z,11.55
2023-06-29T21:49:34.928Z,10.43
2023-06-29T21:52:36.903Z,10.23
2023-06-29T21:58:09.491Z,12.40
2023-06-29T22:01:02.183Z,13.20
2023-06-29T22:03:53.358Z,12.93
2023-06-29T22:06:44.741Z,13.45
2023-06-29T22:09:41.527Z,12.78
2023-06-29T22:12:33.142Z,11.63
2023-06-29T22:15:24.929Z,11.63
2023-06-29T22:20:56.937Z,12.35
2023-06-29T22:26:27.131Z,12.37
2023-06-29T22:29:18.229Z,12.37
2023-06-29T22:32:12.639Z,12.82
2023-06-29T22:35:03.849Z,11.90
2023-06-29T22:37:55.062Z,12.40
2023-06-29T22:40:46.368Z,20.05
2023-06-29T22:43:37.604Z,21.65
2023-06-29T22:46:29.016Z,17.70
2023-06-29T22:49:20.553Z,18.60
2023-06-29T22:52:12.440Z,17.23
2023-06-29T22:55:04.204Z,16.85
2023-06-29T22:57:55.388Z,16.00
2023-06-29T23:00:46.742Z,14.40
2023-06-29T23:03:38.432Z,14.68
2023-06-29T23:06:30.419Z,15.23
2023-06-29T23:12:03.311Z,15.00
2023-06-29T23:14:56.095Z,14.25
2023-06-29T23:17:47.927Z,13.98
2023-06-29T23:20:39.170Z,14.47
2023-06-29T23:26:09.656Z,13.18
2023-06-29T23:29:02.092Z,14.15
2023-06-29T23:31:53.881Z,14.93
2023-06-29T23:34:45.379Z,14.15
2023-06-29T23:37:37.340Z,14.38
2023-06-29T23:43:08.189Z,14.35
2023-06-29T23:45:59.382Z,14.00
2023-06-29T23:51:30.464Z,13.30
2023-06-29T23:54:21.808Z,12.95
2023-06-29T23:57:15.585Z,13.28
